Time;durP1;ratioP1;P1;durP2;ratioP2;P2;SDS_P1;SDS_P2;PMS_P1;PMS_P2;Temp;Humidity;BMP_temperature;BMP_pressure;BME280_temperature;BME280_humidity;BME280_pressure;Samples;Min_cycle;Max_cycle;Signal;HPM_P1;HPM_P2
2023/07/04 00:01:20;;;;;;;9.10;5.43;;;;;;;19.17;nan;100298.59;5039105;28;20083;-70
2023/07/04 00:03:50;;;;;;;9.70;5.82;;;;;;;19.20;nan;100308.72;5039855;28;20026;-70
2023/07/04 00:06:17;;;;;;;10.88;5.95;;;;;;;19.23;nan;100310.03;5037292;28;20104;-65
2023/07/04 00:08:44;;;;;;;11.63;5.80;;;;;;;19.22;nan;100305.75;5037518;28;20036;-70
2023/07/04 00:11:11;;;;;;;8.43;5.72;;;;;;;19.29;nan;100306.97;5041380;28;20107;-70
2023/07/04 00:13:37;;;;;;;10.90;5.88;;;;;;;19.24;nan;100293.69;5043045;28;20071;-66
2023/07/04 00:16:06;;;;;;;9.02;5.65;;;;;;;19.30;nan;100313.94;5037199;28;20530;-66
2023/07/04 00:18:32;;;;;;;;;;;;;;;19.34;nan;100314.94;5037936;28;20030;-66
2023/07/04 00:20:59;;;;;;;7.20;5.22;;;;;;;19.36;nan;100311.19;5041777;28;19916;-64
2023/07/04 00:23:29;;;;;;;10.38;5.13;;;;;;;19.39;nan;100322.09;5041066;28;20068;-69
2023/07/04 00:25:55;;;;;;;9.10;5.50;;;;;;;19.30;nan;100305.91;5038244;28;20025;-66
2023/07/04 00:28:22;;;;;;;9.88;5.55;;;;;;;19.33;nan;100305.34;5036118;28;20057;-65
2023/07/04 00:30:51;;;;;;;8.68;5.72;;;;;;;19.33;nan;100312.56;5036589;28;20033;-66
2023/07/04 00:33:17;;;;;;;10.60;5.55;;;;;;;19.36;nan;100309.31;5037312;28;20384;-66
2023/07/04 00:35:45;;;;;;;10.10;5.78;;;;;;;19.31;nan;100312.84;5037374;28;20036;-66
2023/07/04 00:38:11;;;;;;;10.50;5.80;;;;;;;19.31;nan;100312.06;5038184;28;20475;-66
2023/07/04 00:40:37;;;;;;;10.75;5.65;;;;;;;19.29;nan;100309.66;5035164;28;20052;-66
2023/07/04 00:43:03;;;;;;;7.72;5.57;;;;;;;19.06;nan;100281.91;5039587;28;20060;-65
2023/07/04 00:45:38;;;;;;;6.95;5.28;;;;;;;19.16;nan;100298.88;5035616;28;20021;-65
2023/07/04 00:48:05;;;;;;;8.23;5.95;;;;;;;19.19;nan;100304.44;5037146;28;20143;-65
2023/07/04 00:50:43;;;;;;;9.38;5.28;;;;;;;19.15;nan;100305.28;5037113;28;20050;-66
2023/07/04 00:53:10;;;;;;;9.15;5.35;;;;;;;19.09;nan;100292.00;5036062;28;20044;-66
2023/07/04 00:55:43;;;;;;;9.00;5.30;;;;;;;19.07;nan;100291.50;5035084;28;20021;-66
2023/07/04 00:58:09;;;;;;;9.98;5.72;;;;;;;19.03;nan;100295.00;5037926;28;20369;-66
2023/07/04 01:00:37;;;;;;;9.32;5.53;;;;;;;18.94;nan;100278.03;5038561;28;20025;-70
2023/07/04 01:03:10;;;;;;;6.55;4.70;;;;;;;18.77;nan;100291.81;5038752;28;20516;-66
2023/07/04 01:06:04;;;;;;;7.28;5.20;;;;;;;18.49;nan;100262.19;5033910;28;20541;-66
2023/07/04 01:08:39;;;;;;;8.30;5.55;;;;;;;18.50;nan;100285.88;5035413;28;20112;-66
2023/07/04 01:11:10;;;;;;;7.60;4.97;;;;;;;18.44;nan;100272.91;5036938;28;20053;-69
2023/07/04 01:13:38;;;;;;;6.78;4.50;;;;;;;18.53;nan;100299.72;5040375;28;20023;-71
2023/07/04 01:16:12;;;;;;;7.67;5.03;;;;;;;18.55;nan;100287.72;5036582;28;20159;-67
2023/07/04 01:18:40;;;;;;;12.65;5.18;;;;;;;18.53;nan;100278.41;5039494;28;20323;-67
2023/07/04 01:21:08;;;;;;;9.07;4.53;;;;;;;18.59;nan;100277.28;5034749;28;20031;-71
2023/07/04 01:24:06;;;;;;;7.82;4.85;;;;;;;18.59;nan;100283.41;5037688;28;20078;-67
2023/07/04 01:26:36;;;;;;;8.68;4.63;;;;;;;18.47;nan;100283.00;5040222;28;20464;-71
2023/07/04 01:29:05;;;;;;;8.23;4.80;;;;;;;18.28;nan;100288.22;5036452;28;20030;-66
2023/07/04 01:31:31;;;;;;;11.13;4.75;;;;;;;18.20;nan;100272.84;5036421;28;20013;-66
2023/07/04 01:33:58;;;;;;;9.13;5.10;;;;;;;18.22;nan;100291.97;5038817;28;20025;-66
2023/07/04 01:36:28;;;;;;;10.38;4.88;;;;;;;18.24;nan;100287.16;5038995;28;20037;-65
2023/07/04 01:38:54;;;;;;;9.98;5.65;;;;;;;18.21;nan;100291.19;5035286;28;20071;-65
2023/07/04 01:41:21;;;;;;;12.25;5.03;;;;;;;18.19;nan;100281.88;5033026;28;20049;-65
2023/07/04 01:43:52;;;;;;;7.50;5.13;;;;;;;18.23;nan;100285.59;5038646;28;20491;-65
2023/07/04 01:46:17;;;;;;;10.98;5.03;;;;;;;18.21;nan;100282.41;5035022;28;20496;-65
2023/07/04 01:48:43;;;;;;;11.23;5.35;;;;;;;18.21;nan;100277.06;5035344;28;20108;-65
2023/07/04 01:51:08;;;;;;;9.90;4.95;;;;;;;18.22;nan;100279.47;5035089;28;20021;-66
2023/07/04 01:53:33;;;;;;;10.10;4.75;;;;;;;18.21;nan;100290.41;5036351;28;20018;-65
2023/07/04 01:55:59;;;;;;;8.88;4.70;;;;;;;18.19;nan;100290.66;5033965;28;20379;-66
2023/07/04 01:58:24;;;;;;;8.35;4.85;;;;;;;18.19;nan;100292.53;5035310;28;20025;-71
2023/07/04 02:00:50;;;;;;;8.18;5.13;;;;;;;18.17;nan;100294.69;5039090;28;20514;-66
2023/07/04 02:03:15;;;;;;;9.57;4.95;;;;;;;18.17;nan;100300.03;5038386;28;20787;-65
2023/07/04 02:05:40;;;;;;;6.32;4.68;;;;;;;18.10;nan;100296.88;5035920;28;21004;-65
2023/07/04 02:08:06;;;;;;;7.68;4.80;;;;;;;17.94;nan;100286.31;5037816;28;20037;-65
2023/07/04 02:10:31;;;;;;;12.60;5.68;;;;;;;17.84;nan;100297.84;5036905;28;20408;-65
2023/07/04 02:12:57;;;;;;;9.65;5.00;;;;;;;17.76;nan;100298.38;5033232;28;20022;-65
2023/07/04 02:15:23;;;;;;;10.00;5.07;;;;;;;17.70;nan;100288.84;5036108;28;20026;-70
2023/07/04 02:17:48;;;;;;;10.20;5.60;;;;;;;17.55;nan;100292.38;5033896;28;20028;-65
2023/07/04 02:20:16;;;;;;;10.93;5.13;;;;;;;17.58;nan;100301.69;5036301;28;20028;-66
2023/07/04 02:22:43;;;;;;;9.70;5.35;;;;;;;17.56;nan;100306.47;5040785;28;20479;-65
2023/07/04 02:25:09;;;;;;;7.95;5.30;;;;;;;17.29;nan;100262.41;5035640;28;20017;-69
2023/07/04 02:27:34;;;;;;;12.00;5.28;;;;;;;17.43;nan;100292.69;5035424;28;20028;-69
2023/07/04 02:30:00;;;;;;;7.82;5.10;;;;;;;17.37;nan;100291.13;5047941;28;20033;-69
2023/07/04 02:32:25;;;;;;;12.38;5.47;;;;;;;17.41;nan;100307.34;5037283;28;20030;-65
2023/07/04 02:34:50;;;;;;;14.05;5.47;;;;;;;17.39;nan;100293.50;5039087;28;20029;-64
2023/07/04 02:37:16;;;;;;;14.38;5.45;;;;;;;17.38;nan;100289.25;5041278;28;20097;-66
2023/07/04 02:39:41;;;;;;;11.98;5.32;;;;;;;17.32;nan;100296.47;5035390;28;20025;-68
2023/07/04 02:42:07;;;;;;;9.77;5.68;;;;;;;17.38;nan;100305.22;5070635;28;20028;-65
2023/07/04 02:44:34;;;;;;;10.73;5.57;;;;;;;17.34;nan;100317.50;5037089;28;20021;-63
2023/07/04 02:46:59;;;;;;;9.45;5.55;;;;;;;17.23;nan;100306.88;5038268;28;20028;-64
2023/07/04 02:49:24;;;;;;;10.55;4.78;;;;;;;17.30;nan;100316.44;5037110;28;20377;-63
2023/07/04 02:51:50;;;;;;;11.27;5.53;;;;;;;17.30;nan;100319.88;5035817;28;20033;-64
2023/07/04 02:54:18;;;;;;;9.98;5.18;;;;;;;17.27;nan;100307.13;5035746;28;20478;-64
2023/07/04 02:56:44;;;;;;;13.35;5.45;;;;;;;17.28;nan;100313.25;5036709;28;20021;-63
2023/07/04 02:59:09;;;;;;;16.30;5.20;;;;;;;17.28;nan;100323.88;5035592;28;20476;-64
2023/07/04 03:01:35;;;;;;;8.85;5.50;;;;;;;17.01;nan;100287.78;5033639;28;20028;-67
2023/07/04 03:04:00;;;;;;;7.63;5.47;;;;;;;17.21;nan;100313.53;5035886;28;20619;-65
2023/07/04 03:06:26;;;;;;;8.75;5.53;;;;;;;17.13;nan;100314.88;5038240;28;20024;-67
2023/07/04 03:08:51;;;;;;;8.60;5.07;;;;;;;17.08;nan;100300.81;5039255;28;20021;-68
2023/07/04 03:11:17;;;;;;;12.05;5.45;;;;;;;17.15;nan;100319.94;5036894;28;20055;-68
2023/07/04 03:13:43;;;;;;;9.55;5.50;;;;;;;17.16;nan;100321.53;5033573;28;20025;-67
2023/07/04 03:16:08;;;;;;;10.40;5.30;;;;;;;17.14;nan;100316.50;5036249;28;20486;-69
2023/07/04 03:18:34;;;;;;;8.55;5.32;;;;;;;17.12;nan;100318.63;5037594;28;20495;-65
2023/07/04 03:20:59;;;;;;;9.27;5.18;;;;;;;17.13;nan;100333.50;5034642;28;20017;-66
2023/07/04 03:23:25;;;;;;;8.98;5.47;;;;;;;17.09;nan;100323.66;5040839;28;20453;-68
2023/07/04 03:25:50;;;;;;;12.52;5.53;;;;;;;17.14;nan;100328.97;5038434;28;20045;-69
2023/07/04 03:28:15;;;;;;;11.10;5.20;;;;;;;17.14;nan;100323.66;5035216;28;20547;-68
2023/07/04 03:30:42;;;;;;;10.65;5.55;;;;;;;17.24;nan;100342.28;5036251;28;20068;-71
2023/07/04 03:33:08;;;;;;;11.88;5.60;;;;;;;17.26;nan;100342.00;5037741;28;20029;-71
2023/07/04 03:35:36;;;;;;;11.93;5.22;;;;;;;17.32;nan;100335.59;5036945;28;20025;-71
2023/07/04 03:38:01;;;;;;;10.82;4.85;;;;;;;17.33;nan;100329.97;5035564;28;20056;-71
2023/07/04 03:40:26;;;;;;;11.50;5.18;;;;;;;17.41;nan;100334.75;5036990;28;20476;-72
2023/07/04 03:42:52;;;;;;;8.65;5.38;;;;;;;17.43;nan;100329.97;5038789;28;20020;-72
2023/07/04 03:45:17;;;;;;;9.85;5.25;;;;;;;17.52;nan;100338.16;5037185;28;20033;-71
2023/07/04 03:47:43;;;;;;;9.32;4.90;;;;;;;17.54;nan;100335.25;5034896;28;20566;-71
2023/07/04 03:50:08;;;;;;;11.25;4.90;;;;;;;17.52;nan;100324.06;5038420;28;20093;-70
2023/07/04 03:52:35;;;;;;;8.25;4.45;;;;;;;17.59;nan;100330.69;5035694;28;20037;-71
2023/07/04 03:55:01;;;;;;;7.78;4.90;;;;;;;17.71;nan;100341.03;5034416;28;20025;-71
2023/07/04 03:57:26;;;;;;;15.02;4.93;;;;;;;17.73;nan;100340.75;5034866;28;20026;-66
2023/07/04 03:59:52;;;;;;;11.35;4.88;;;;;;;17.74;nan;100329.84;5035785;28;20115;-66
2023/07/04 04:02:17;;;;;;;10.80;4.88;;;;;;;17.82;nan;100333.81;5035539;28;20020;-67
2023/07/04 04:04:43;;;;;;;8.02;4.57;;;;;;;17.91;nan;100340.16;5033346;28;20017;-70
2023/07/04 04:07:10;;;;;;;8.02;4.18;;;;;;;17.97;nan;100340.94;5035544;28;20018;-71
2023/07/04 04:09:36;;;;;;;11.68;4.85;;;;;;;17.98;nan;100335.34;5036598;28;20033;-67
2023/07/04 04:12:04;;;;;;;8.55;4.32;;;;;;;18.04;nan;100334.22;5036740;28;20043;-68
2023/07/04 04:14:30;;;;;;;7.93;4.22;;;;;;;18.09;nan;100337.94;5035182;28;20075;-68
2023/07/04 04:16:56;;;;;;;6.97;4.55;;;;;;;18.17;nan;100338.16;5037156;28;20631;-67
2023/07/04 04:19:22;;;;;;;10.18;4.40;;;;;;;18.26;nan;100335.66;5036227;28;20027;-65
2023/07/04 04:21:48;;;;;;;9.05;4.45;;;;;;;18.31;nan;100335.63;5036995;28;20018;-68
2023/07/04 04:24:13;;;;;;;15.52;5.50;;;;;;;18.40;nan;100343.84;5035067;28;20028;-68
2023/07/04 04:26:40;;;;;;;8.45;5.03;;;;;;;18.47;nan;100337.13;5035428;28;20395;-68
2023/07/04 04:29:05;;;;;;;12.07;4.63;;;;;;;18.54;nan;100342.13;5032647;28;20033;-68
2023/07/04 04:31:37;;;;;;;9.52;4.85;;;;;;;18.63;nan;100347.66;5070849;28;20087;-68
2023/07/04 04:34:06;;;;;;;8.38;4.20;;;;;;;18.74;nan;100354.50;5035087;28;20100;-67
2023/07/04 04:36:33;;;;;;;10.45;4.45;;;;;;;18.75;nan;100337.44;5038248;28;20041;-67
2023/07/04 04:38:59;;;;;;;9.02;4.70;;;;;;;18.85;nan;100345.34;5039988;28;20019;-71
2023/07/04 04:41:26;;;;;;;8.15;4.93;;;;;;;18.96;nan;100343.38;5032721;28;20017;-71
2023/07/04 04:43:51;;;;;;;8.73;5.03;;;;;;;19.04;nan;100344.66;5035544;28;20045;-67
2023/07/04 04:46:17;;;;;;;6.78;4.13;;;;;;;19.17;nan;100353.84;5036738;28;20447;-67
2023/07/04 04:48:43;;;;;;;9.55;4.50;;;;;;;19.25;nan;100362.03;5036185;28;20028;-71
2023/07/04 04:51:12;;;;;;;7.70;4.78;;;;;;;19.33;nan;100345.41;5032283;28;20109;-67
2023/07/04 04:53:40;;;;;;;8.57;4.28;;;;;;;19.42;nan;100348.25;5035204;28;20083;-67
2023/07/04 04:56:09;;;;;;;6.88;4.40;;;;;;;19.45;nan;100344.19;5034809;28;20052;-70
2023/07/04 04:58:35;;;;;;;;;;;;;;;19.63;nan;100356.78;5035737;28;20392;-68
2023/07/04 05:01:19;;;;;;;8.60;4.38;;;;;;;19.73;nan;100359.38;5034495;28;19909;-70
2023/07/04 05:03:45;;;;;;;7.57;4.25;;;;;;;19.79;nan;100349.41;5035169;28;20041;-70
2023/07/04 05:06:12;;;;;;;12.52;4.60;;;;;;;19.96;nan;100346.25;5035919;28;20036;-71
2023/07/04 05:08:38;;;;;;;11.23;4.47;;;;;;;19.87;nan;100316.72;5033043;28;20014;-73
2023/07/04 05:11:07;;;;;;;6.63;4.40;;;;;;;20.22;nan;100349.34;5032574;28;20395;-73
2023/07/04 05:13:38;;;;;;;9.82;4.55;;;;;;;20.27;nan;100340.44;5036324;28;20096;-73
2023/07/04 05:16:07;;;;;;;11.68;4.20;;;;;;;20.40;nan;100345.06;5032717;28;20014;-73
2023/07/04 05:18:35;;;;;;;6.30;3.90;;;;;;;20.54;nan;100364.63;5036176;28;20140;-72
2023/07/04 05:21:09;;;;;;;9.73;3.83;;;;;;;20.62;nan;100352.50;5035335;28;20018;-74
2023/07/04 05:23:35;;;;;;;9.10;4.28;;;;;;;;;;5032458;28;20388;-68
2023/07/04 05:26:06;;;;;;;10.40;3.95;;;;;;;21.00;nan;100396.00;5040554;28;20029;-73
2023/07/04 05:28:31;;;;;;;9.43;4.07;;;;;;;20.89;nan;100375.84;5022931;28;20022;-72
2023/07/04 05:31:01;;;;;;;15.25;5.35;;;;;;;20.89;nan;100359.78;5033265;28;20032;-73
2023/07/04 05:33:28;;;;;;;9.23;4.78;;;;;;;21.06;nan;100377.16;5040162;28;20017;-69
2023/07/04 05:36:14;;;;;;;13.18;4.30;;;;;;;21.17;nan;100384.72;5038171;28;20504;-69
2023/07/04 05:38:41;;;;;;;11.43;3.80;;;;;;;21.09;nan;100357.81;5044509;28;20041;-70
2023/07/04 05:41:11;;;;;;;11.40;4.47;;;;;;;21.37;nan;100388.91;5035447;28;20025;-68
2023/07/04 05:43:37;;;;;;;8.88;4.57;;;;;;;21.34;nan;100373.44;5042409;28;20013;-69
2023/07/04 05:46:04;;;;;;;5.35;3.85;;;;;;;21.48;nan;100388.72;5038068;28;20147;-70
2023/07/04 05:48:29;;;;;;;9.43;4.50;;;;;;;21.54;nan;100382.19;5042814;28;20799;-70
2023/07/04 05:50:58;;;;;;;10.35;4.40;;;;;;;21.63;nan;100394.56;5045851;28;20159;-65
2023/07/04 05:53:27;;;;;;;7.93;4.30;;;;;;;21.71;nan;100393.06;5037236;28;20014;-66
2023/07/04 05:55:52;;;;;;;;;;;;;;;21.78;nan;100388.09;5037025;28;20029;-64
2023/07/04 05:58:19;;;;;;;7.25;4.07;;;;;;;21.85;nan;100387.69;5037668;28;19912;-68
2023/07/04 06:00:47;;;;;;;9.60;4.30;;;;;;;21.91;nan;100378.47;5036636;28;20407;-67
2023/07/04 06:03:22;;;;;;;8.65;4.18;;;;;;;21.92;nan;100374.69;5036755;28;20110;-70
2023/07/04 06:05:48;;;;;;;10.00;4.13;;;;;;;22.01;nan;100393.53;5040016;28;20104;-70
2023/07/04 06:08:13;;;;;;;8.95;3.95;;;;;;;22.18;nan;100391.00;5042802;28;20155;-69
2023/07/04 06:10:38;;;;;;;9.02;4.63;;;;;;;22.28;nan;100387.31;5051453;28;20052;-70
2023/07/04 06:13:04;;;;;;;7.72;4.30;;;;;;;22.16;nan;100361.00;5044444;28;20028;-70
2023/07/04 06:15:29;;;;;;;7.22;3.90;;;;;;;22.39;nan;100387.91;5044320;28;20110;-70
2023/07/04 06:17:55;;;;;;;8.57;3.95;;;;;;;22.53;nan;100391.31;5077088;28;20025;-70
2023/07/04 06:20:22;;;;;;;14.35;4.05;;;;;;;22.70;nan;100398.69;5045552;28;20021;-70
2023/07/04 06:22:48;;;;;;;9.32;4.07;;;;;;;22.71;nan;100373.41;5039196;28;20013;-71
2023/07/04 06:25:13;;;;;;;6.10;3.70;;;;;;;22.90;nan;100398.16;5052965;28;20048;-72
2023/07/04 06:27:41;;;;;;;9.73;3.80;;;;;;;22.99;nan;100400.94;5062720;28;20013;-71
2023/07/04 06:30:08;;;;;;;7.57;4.00;;;;;;;23.04;nan;100386.59;5043273;28;20103;-72
2023/07/04 06:32:34;;;;;;;11.20;3.70;;;;;;;23.16;nan;100391.38;5045680;28;20045;-70
2023/07/04 06:34:59;;;;;;;10.57;4.13;;;;;;;23.29;nan;100396.63;5039414;28;20480;-69
2023/07/04 06:37:25;;;;;;;8.02;3.95;;;;;;;23.39;nan;100403.63;5041096;28;20048;-74
2023/07/04 06:39:50;;;;;;;6.95;3.75;;;;;;;23.45;nan;100390.84;5038932;28;20021;-74
2023/07/04 06:42:16;;;;;;;6.80;4.07;;;;;;;23.54;nan;100397.06;5034616;28;20671;-70
2023/07/04 06:44:45;;;;;;;8.35;4.10;;;;;;;23.62;nan;100392.81;5038517;28;20018;-71
2023/07/04 06:47:10;;;;;;;7.32;3.88;;;;;;;23.71;nan;100385.56;5041922;28;20024;-70
2023/07/04 06:49:36;;;;;;;4.93;3.20;;;;;;;23.72;nan;100376.38;5035901;28;20029;-69
2023/07/04 06:52:01;;;;;;;11.40;3.88;;;;;;;24.01;nan;100393.84;5042807;28;20013;-73
2023/07/04 06:54:27;;;;;;;8.07;3.90;;;;;;;24.09;nan;100377.72;5040515;28;20009;-73
2023/07/04 06:56:52;;;;;;;10.63;4.30;;;;;;;24.22;nan;100383.25;5037416;28;20017;-70
2023/07/04 06:59:17;;;;;;;8.30;3.72;;;;;;;24.32;nan;100386.41;5042239;28;20017;-72
2023/07/04 07:01:43;;;;;;;8.23;3.22;;;;;;;24.19;nan;100357.78;5039282;28;20017;-70
2023/07/04 07:04:08;;;;;;;7.15;3.33;;;;;;;24.42;nan;100378.03;5045759;28;20021;-71
2023/07/04 07:06:34;;;;;;;4.35;3.40;;;;;;;24.41;nan;100373.72;5041844;28;20005;-71
2023/07/04 07:08:59;;;;;;;6.82;3.50;;;;;;;24.47;nan;100384.34;5041144;28;20023;-71
2023/07/04 07:11:25;;;;;;;9.25;3.70;;;;;;;24.50;nan;100378.34;5040346;28;20136;-73
2023/07/04 07:13:51;;;;;;;7.38;3.67;;;;;;;24.56;nan;100380.53;5039520;28;20018;-74
2023/07/04 07:16:20;;;;;;;7.60;4.20;;;;;;;24.61;nan;100387.66;5034849;28;20017;-72
2023/07/04 07:18:46;;;;;;;;;;;;;;;24.69;nan;100378.00;5035177;28;20045;-72
2023/07/04 07:21:13;;;;;;;8.43;3.38;;;;;;;24.78;nan;100386.84;5041956;28;19994;-71
2023/07/04 07:23:40;;;;;;;5.30;3.47;;;;;;;24.84;nan;100378.28;5040379;28;20056;-70
2023/07/04 07:26:15;;;;;;;7.68;3.33;;;;;;;24.94;nan;100376.34;5041654;28;20084;-72
2023/07/04 07:28:42;;;;;;;6.28;3.35;;;;;;;25.08;nan;100374.22;5042540;28;20039;-73
2023/07/04 07:31:22;;;;;;;6.40;3.13;;;;;;;25.20;nan;100378.97;5038598;28;20028;-71
2023/07/04 07:33:49;;;;;;;9.55;3.58;;;;;;;25.30;nan;100377.81;5043522;28;20014;-73
2023/07/04 07:36:32;;;;;;;4.53;2.97;;;;;;;25.38;nan;100379.66;5041848;28;20017;-72
2023/07/04 07:38:59;;;;;;;7.28;3.13;;;;;;;25.44;nan;100373.00;5041687;28;20079;-72
2023/07/04 07:41:28;;;;;;;13.05;3.22;;;;;;;25.54;nan;100359.13;5041140;28;20025;-72
2023/07/04 07:43:54;;;;;;;10.18;3.58;;;;;;;25.64;nan;100366.03;5046904;28;20056;-72
2023/07/04 07:46:21;;;;;;;8.23;3.20;;;;;;;25.67;nan;100355.41;5069693;28;20025;-75
2023/07/04 07:48:48;;;;;;;4.72;3.35;;;;;;;25.78;nan;100363.88;5041645;28;20029;-74
2023/07/04 07:51:14;;;;;;;6.68;3.53;;;;;;;25.86;nan;100362.28;5043883;28;20480;-73
2023/07/04 07:53:45;;;;;;;5.72;3.45;;;;;;;25.96;nan;100358.41;5038577;28;20032;-72
2023/07/04 07:56:17;;;;;;;7.75;3.55;;;;;;;26.06;nan;100364.19;5041099;28;20064;-74
2023/07/04 07:58:42;;;;;;;6.45;2.90;;;;;;;25.97;nan;100349.97;5039705;28;20062;-73
2023/07/04 08:01:15;;;;;;;7.72;3.50;;;;;;;26.14;nan;100362.53;5038120;28;20018;-73
2023/07/04 08:03:44;;;;;;;5.53;3.13;;;;;;;26.26;nan;100367.19;5036963;28;20025;-73
2023/07/04 08:06:23;;;;;;;7.50;3.05;;;;;;;26.32;nan;100373.97;5036343;28;20029;-73
2023/07/04 08:08:50;;;;;;;5.53;2.90;;;;;;;26.31;nan;100364.28;5032663;28;20025;-74
2023/07/04 08:11:17;;;;;;;5.13;3.13;;;;;;;26.51;nan;100379.66;4994114;28;1286852;-74
2023/07/04 08:13:42;;;;;;;8.35;3.33;;;;;;;26.61;nan;100373.09;5040931;28;20028;-74
2023/07/04 08:16:08;;;;;;;7.57;2.88;;;;;;;26.58;nan;100362.16;5039807;28;20024;-73
2023/07/04 08:18:33;;;;;;;4.90;2.53;;;;;;;26.80;nan;100377.19;5043470;28;20021;-72
2023/07/04 08:21:03;;;;;;;7.40;3.20;;;;;;;26.79;nan;100345.88;5069183;28;20418;-73
2023/07/04 08:23:33;;;;;;;7.57;3.20;;;;;;;26.86;nan;100352.28;5038045;28;20051;-74
2023/07/04 08:25:58;;;;;;;5.25;2.60;;;;;;;26.91;nan;100354.81;5038885;28;20052;-71
2023/07/04 08:28:26;;;;;;;4.88;2.42;;;;;;;26.98;nan;100366.94;5042939;28;20705;-73
2023/07/04 08:30:52;;;;;;;5.72;2.50;;;;;;;27.04;nan;100374.50;5036641;28;20032;-74
2023/07/04 08:33:18;;;;;;;5.40;2.65;;;;;;;27.07;nan;100376.53;5039337;28;20044;-72
2023/07/04 08:36:02;;;;;;;6.22;3.08;;;;;;;27.13;nan;100367.09;5039049;28;20017;-73
2023/07/04 08:38:28;;;;;;;7.03;2.83;;;;;;;27.12;nan;100368.19;5039712;28;20112;-72
2023/07/04 08:40:54;;;;;;;8.15;3.05;;;;;;;27.33;nan;100362.72;5037034;28;20113;-74
2023/07/04 08:43:47;;;;;;;5.10;2.85;;;;;;;27.03;nan;100318.91;5035331;28;20066;-71
2023/07/04 08:46:14;;;;;;;3.20;2.67;;;;;;;27.36;nan;100362.03;5038592;28;20404;-73
2023/07/04 08:48:45;;;;;;;9.75;3.20;;;;;;;27.33;nan;100346.50;5039175;28;20021;-74
2023/07/04 08:51:23;;;;;;;4.63;2.80;;;;;;;27.54;nan;100373.41;5039766;28;20030;-75
2023/07/04 08:53:56;;;;;;;7.28;2.95;;;;;;;27.53;nan;100368.31;5040870;28;20052;-74
2023/07/04 08:56:33;;;;;;;4.35;2.90;;;;;;;27.52;nan;100366.75;5038992;28;20029;-74
2023/07/04 08:59:30;;;;;;;4.47;3.20;;;;;;;27.52;nan;100369.47;5034381;28;20031;-72
2023/07/04 09:02:12;;;;;;;5.75;2.97;;;;;;;27.58;nan;100373.50;5039867;28;20029;-73
2023/07/04 09:05:12;;;;;;;5.97;3.33;;;;;;;27.63;nan;100381.41;5038900;28;20020;-74
2023/07/04 09:07:56;;;;;;;6.57;2.88;;;;;;;27.69;nan;100385.44;5035340;28;20025;-74
2023/07/04 09:10:33;;;;;;;3.75;2.63;;;;;;;27.65;nan;100372.94;5037088;28;20511;-74
2023/07/04 09:13:02;;;;;;;5.60;2.90;;;;;;;27.74;nan;100376.31;5038980;28;20081;-73
2023/07/04 09:15:35;;;;;;;6.25;2.97;;;;;;;27.76;nan;100384.88;5034573;28;20033;-72
2023/07/04 09:18:18;;;;;;;5.45;3.30;;;;;;;27.78;nan;100377.22;5037669;28;20083;-73
2023/07/04 09:20:49;;;;;;;3.50;2.88;;;;;;;27.78;nan;100375.28;5034595;28;20040;-73
2023/07/04 09:23:22;;;;;;;4.63;3.05;;;;;;;27.83;nan;100379.69;5039272;28;20425;-75
2023/07/04 09:25:48;;;;;;;5.07;3.08;;;;;;;27.87;nan;100383.31;5035339;28;20025;-73
2023/07/04 09:28:13;;;;;;;4.25;3.00;;;;;;;27.91;nan;100389.59;5018676;28;20022;-73
2023/07/04 09:30:39;;;;;;;5.07;3.22;;;;;;;27.93;nan;100383.84;5036038;28;20035;-73
2023/07/04 09:33:04;;;;;;;5.35;3.25;;;;;;;27.97;nan;100379.34;5037666;28;20067;-72
2023/07/04 09:35:31;;;;;;;6.50;3.00;;;;;;;27.66;nan;100328.53;5055626;28;20885;-73
2023/07/04 09:38:02;;;;;;;6.53;3.20;;;;;;;28.02;nan;100375.59;5037473;28;20887;-73
2023/07/04 09:40:43;;;;;;;4.25;3.33;;;;;;;27.97;nan;100363.88;5034059;28;20032;-76
2023/07/04 09:43:10;;;;;;;6.25;3.15;;;;;;;27.90;nan;100373.72;5035339;28;20539;-74
2023/07/04 09:45:37;;;;;;;5.57;3.70;;;;;;;27.93;nan;100364.91;5032601;28;20143;-74
2023/07/04 09:48:05;;;;;;;4.32;3.10;;;;;;;27.98;nan;100375.47;5023190;28;20048;-74
2023/07/04 09:50:34;;;;;;;6.05;3.30;;;;;;;28.02;nan;100370.19;5035619;28;20032;-74
2023/07/04 09:53:07;;;;;;;7.82;3.80;;;;;;;28.05;nan;100366.78;5037040;28;20030;-74
2023/07/04 09:55:33;;;;;;;5.95;3.90;;;;;;;28.03;nan;100369.81;5036036;28;20039;-75
2023/07/04 09:58:22;;;;;;;5.00;3.53;;;;;;;28.09;nan;100381.22;5034300;28;20025;-70
2023/07/04 10:01:08;;;;;;;;;;;;;;;28.13;nan;100376.66;5029227;28;20075;-70
2023/07/04 10:03:41;;;;;;;8.82;3.75;;;;;;;28.14;nan;100370.91;5030055;28;19916;-70
2023/07/04 10:06:10;;;;;;;4.78;3.13;;;;;;;28.09;nan;100365.75;5028489;28;20025;-68
2023/07/04 10:08:54;;;;;;;5.15;3.30;;;;;;;28.17;nan;100369.44;5035192;28;20041;-71
2023/07/04 10:11:32;;;;;;;6.57;3.35;;;;;;;28.20;nan;100372.22;5030668;28;20060;-70
2023/07/04 10:14:06;;;;;;;7.30;3.53;;;;;;;28.14;nan;100349.25;5032735;28;20108;-74
2023/07/04 10:16:33;;;;;;;6.20;3.55;;;;;;;28.25;nan;100363.06;5033870;28;20451;-74
2023/07/04 10:19:22;;;;;;;4.93;3.58;;;;;;;28.28;nan;100365.13;5034141;28;20028;-70
2023/07/04 10:21:53;;;;;;;8.05;3.65;;;;;;;28.30;nan;100367.47;5015616;28;20033;-69
2023/07/04 10:24:21;;;;;;;10.63;3.80;;;;;;;28.36;nan;100363.38;5035813;28;20537;-75
2023/07/04 10:26:50;;;;;;;10.82;3.58;;;;;;;28.38;nan;100358.41;5037395;28;20024;-73
2023/07/04 10:29:26;;;;;;;7.95;3.60;;;;;;;28.53;nan;100362.31;5034028;28;20478;-73
2023/07/04 10:31:52;;;;;;;4.35;3.30;;;;;;;28.60;nan;100365.19;5039450;28;20101;-74
2023/07/04 10:34:20;;;;;;;6.00;3.42;;;;;;;28.68;nan;100355.31;5034616;28;20026;-73
2023/07/04 10:36:49;;;;;;;3.57;2.80;;;;;;;28.74;nan;100359.38;5035903;28;20104;-73
2023/07/04 10:39:16;;;;;;;3.75;3.40;;;;;;;28.72;nan;100343.44;5034385;28;20020;-73
2023/07/04 10:41:54;;;;;;;5.70;3.28;;;;;;;28.80;nan;100353.34;5034852;28;20052;-71
2023/07/04 10:44:23;;;;;;;5.93;3.10;;;;;;;28.76;nan;100330.78;5038481;28;20025;-72
2023/07/04 10:47:03;;;;;;;6.13;3.88;;;;;;;28.93;nan;100343.19;5033202;28;20492;-71
2023/07/04 10:49:34;;;;;;;8.75;3.05;;;;;;;28.96;nan;100334.34;5034617;28;20691;-71
2023/07/04 10:52:08;;;;;;;6.32;3.20;;;;;;;29.03;nan;100328.31;5032765;28;20365;-72
2023/07/04 10:54:33;;;;;;;4.15;3.42;;;;;;;29.08;nan;100332.72;5039621;28;20520;-72
2023/07/04 10:57:09;;;;;;;6.40;3.53;;;;;;;29.14;nan;100331.28;5039022;28;20014;-72
2023/07/04 10:59:41;;;;;;;3.95;3.08;;;;;;;29.18;nan;100330.22;5035190;28;20021;-70
2023/07/04 11:02:18;;;;;;;4.38;3.10;;;;;;;29.24;nan;100336.97;5040738;28;20017;-72
2023/07/04 11:04:44;;;;;;;5.43;3.13;;;;;;;29.27;nan;100321.91;5036486;28;20480;-70
2023/07/04 11:07:23;;;;;;;5.32;3.60;;;;;;;29.24;nan;100317.22;5037329;28;20032;-71
2023/07/04 11:09:53;;;;;;;;;;;;;;;29.35;nan;100320.94;5038710;28;20491;-73
2023/07/04 11:12:23;;;;;;;3.42;3.13;;;;;;;29.37;nan;100324.06;5037962;28;19943;-73
2023/07/04 11:14:48;;;;;;;5.53;3.25;;;;;;;29.32;nan;100296.44;5040886;28;20040;-73
2023/07/04 11:17:20;;;;;;;5.80;3.35;;;;;;;29.53;nan;100315.13;5037238;28;20383;-73
2023/07/04 11:19:53;;;;;;;8.15;3.40;;;;;;;29.59;nan;100303.59;5034123;28;20502;-72
2023/07/04 11:22:19;;;;;;;5.70;3.80;;;;;;;29.67;nan;100305.38;5051119;28;20052;-72
2023/07/04 11:24:54;;;;;;;6.32;3.40;;;;;;;29.70;nan;100303.88;5031636;28;22078;-72
2023/07/04 11:27:25;;;;;;;4.60;3.78;;;;;;;29.68;nan;100295.28;5037836;28;20021;-75
2023/07/04 11:29:56;;;;;;;3.60;3.05;;;;;;;29.77;nan;100293.16;5042500;28;20056;-71
2023/07/04 11:32:38;;;;;;;5.25;3.20;;;;;;;29.77;nan;100289.66;5036586;28;20028;-70
2023/07/04 11:35:09;;;;;;;5.22;3.75;;;;;;;29.85;nan;100286.72;5038175;28;20036;-75
2023/07/04 11:37:42;;;;;;;5.97;3.20;;;;;;;29.98;nan;100286.56;5036646;28;20452;-72
2023/07/04 11:40:32;;;;;;;4.22;3.20;;;;;;;30.04;nan;100280.47;5035248;28;20026;-71
2023/07/04 11:43:16;;;;;;;10.35;3.50;;;;;;;30.04;nan;100279.69;5040853;28;20021;-74
2023/07/04 11:45:42;;;;;;;3.70;3.30;;;;;;;29.94;nan;100270.22;5038643;28;20501;-73
2023/07/04 11:48:15;;;;;;;4.82;3.25;;;;;;;29.95;nan;100279.91;5035959;28;20024;-72
2023/07/04 11:50:48;;;;;;;5.60;3.05;;;;;;;30.11;nan;100282.56;5036194;28;20033;-71